sensor_id;sensor_type;location;lat;lon;timestamp;P1;durP1;ratioP1;P2;durP2;ratioP2
10651;SDS011;5374;42.742;23.266;2023-04-24T00:02:38;10.13;;;8.70;;
10651;SDS011;5374;42.742;23.266;2023-04-24T00:05:25;11.83;;;8.77;;
10651;SDS011;5374;42.742;23.266;2023-04-24T00:08:14;16.17;;;9.93;;
10651;SDS011;5374;42.742;23.266;2023-04-24T00:11:01;14.53;;;7.97;;
10651;SDS011;5374;42.742;23.266;2023-04-24T00:13:52;11.30;;;7.50;;
10651;SDS011;5374;42.742;23.266;2023-04-24T00:16:39;10.67;;;7.17;;
10651;SDS011;5374;42.742;23.266;2023-04-24T00:19:26;8.47;;;6.70;;
10651;SDS011;5374;42.742;23.266;2023-04-24T00:22:14;11.03;;;7.47;;
10651;SDS011;5374;42.742;23.266;2023-04-24T00:25:02;11.03;;;8.73;;
10651;SDS011;5374;42.742;23.266;2023-04-24T00:27:51;14.27;;;10.13;;
10651;SDS011;5374;42.742;23.266;2023-04-24T00:30:38;17.53;;;11.23;;
10651;SDS011;5374;42.742;23.266;2023-04-24T00:33:25;11.37;;;9.00;;
10651;SDS011;5374;42.742;23.266;2023-04-24T00:36:12;9.63;;;8.73;;
10651;SDS011;5374;42.742;23.266;2023-04-24T00:38:59;17.87;;;12.00;;
10651;SDS011;5374;42.742;23.266;2023-04-24T00:41:49;16.03;;;11.53;;
10651;SDS011;5374;42.742;23.266;2023-04-24T00:44:37;15.63;;;11.07;;
10651;SDS011;5374;42.742;23.266;2023-04-24T00:47:25;15.83;;;10.43;;
10651;SDS011;5374;42.742;23.266;2023-04-24T00:50:14;16.73;;;11.47;;
10651;SDS011;5374;42.742;23.266;2023-04-24T00:53:02;14.60;;;10.80;;
10651;SDS011;5374;42.742;23.266;2023-04-24T00:55:49;15.33;;;11.93;;
10651;SDS011;5374;42.742;23.266;2023-04-24T00:58:38;12.10;;;10.43;;
10651;SDS011;5374;42.742;23.266;2023-04-24T01:01:27;18.90;;;13.37;;
10651;SDS011;5374;42.742;23.266;2023-04-24T01:04:14;17.07;;;13.33;;
10651;SDS011;5374;42.742;23.266;2023-04-24T01:07:03;17.53;;;12.27;;
10651;SDS011;5374;42.742;23.266;2023-04-24T01:09:55;14.77;;;11.07;;
10651;SDS011;5374;42.742;23.266;2023-04-24T01:12:42;16.97;;;12.57;;
10651;SDS011;5374;42.742;23.266;2023-04-24T01:15:31;11.03;;;9.93;;
10651;SDS011;5374;42.742;23.266;2023-04-24T01:18:18;30.87;;;17.97;;
10651;SDS011;5374;42.742;23.266;2023-04-24T01:21:07;46.07;;;26.70;;
10651;SDS011;5374;42.742;23.266;2023-04-24T01:23:57;35.37;;;21.43;;
10651;SDS011;5374;42.742;23.266;2023-04-24T01:26:44;20.80;;;14.40;;
10651;SDS011;5374;42.742;23.266;2023-04-24T01:29:31;18.23;;;13.10;;
10651;SDS011;5374;42.742;23.266;2023-04-24T01:32:20;17.87;;;13.47;;
10651;SDS011;5374;42.742;23.266;2023-04-24T01:35:08;17.73;;;12.47;;
10651;SDS011;5374;42.742;23.266;2023-04-24T01:37:55;28.43;;;16.83;;
10651;SDS011;5374;42.742;23.266;2023-04-24T01:40:44;20.93;;;13.17;;
10651;SDS011;5374;42.742;23.266;2023-04-24T01:43:31;17.90;;;12.77;;
10651;SDS011;5374;42.742;23.266;2023-04-24T01:46:19;21.17;;;14.93;;
10651;SDS011;5374;42.742;23.266;2023-04-24T01:49:06;13.57;;;10.90;;
10651;SDS011;5374;42.742;23.266;2023-04-24T01:51:53;13.20;;;10.87;;
10651;SDS011;5374;42.742;23.266;2023-04-24T01:54:40;15.33;;;11.60;;
10651;SDS011;5374;42.742;23.266;2023-04-24T01:57:29;13.23;;;11.23;;
10651;SDS011;5374;42.742;23.266;2023-04-24T02:00:16;12.47;;;11.17;;
10651;SDS011;5374;42.742;23.266;2023-04-24T02:03:04;12.37;;;10.37;;
10651;SDS011;5374;42.742;23.266;2023-04-24T02:05:51;14.93;;;11.47;;
10651;SDS011;5374;42.742;23.266;2023-04-24T02:08:38;12.53;;;10.37;;
10651;SDS011;5374;42.742;23.266;2023-04-24T02:11:25;14.83;;;11.40;;
10651;SDS011;5374;42.742;23.266;2023-04-24T02:14:14;13.43;;;11.50;;
10651;SDS011;5374;42.742;23.266;2023-04-24T02:17:01;13.13;;;11.17;;
10651;SDS011;5374;42.742;23.266;2023-04-24T02:19:49;11.87;;;10.67;;
10651;SDS011;5374;42.742;23.266;2023-04-24T02:22:36;12.03;;;9.97;;
10651;SDS011;5374;42.742;23.266;2023-04-24T02:25:23;14.83;;;9.80;;
10651;SDS011;5374;42.742;23.266;2023-04-24T02:28:10;14.77;;;9.53;;
10651;SDS011;5374;42.742;23.266;2023-04-24T02:31:00;13.63;;;9.53;;
10651;SDS011;5374;42.742;23.266;2023-04-24T02:33:47;12.10;;;9.53;;
10651;SDS011;5374;42.742;23.266;2023-04-24T02:36:35;12.97;;;10.40;;
10651;SDS011;5374;42.742;23.266;2023-04-24T02:39:22;12.93;;;10.73;;
10651;SDS011;5374;42.742;23.266;2023-04-24T02:42:09;12.00;;;10.67;;
10651;SDS011;5374;42.742;23.266;2023-04-24T02:44:56;12.70;;;10.53;;
10651;SDS011;5374;42.742;23.266;2023-04-24T02:47:45;11.70;;;10.40;;
10651;SDS011;5374;42.742;23.266;2023-04-24T02:50:32;14.27;;;10.40;;
10651;SDS011;5374;42.742;23.266;2023-04-24T02:53:19;12.33;;;10.37;;
10651;SDS011;5374;42.742;23.266;2023-04-24T02:56:06;13.37;;;11.17;;
10651;SDS011;5374;42.742;23.266;2023-04-24T02:58:53;12.40;;;10.87;;
10651;SDS011;5374;42.742;23.266;2023-04-24T03:01:41;15.40;;;11.93;;
10651;SDS011;5374;42.742;23.266;2023-04-24T03:04:29;15.83;;;10.80;;
10651;SDS011;5374;42.742;23.266;2023-04-24T03:07:17;14.63;;;10.73;;
10651;SDS011;5374;42.742;23.266;2023-04-24T03:10:09;13.80;;;10.80;;
10651;SDS011;5374;42.742;23.266;2023-04-24T03:12:56;15.37;;;10.60;;
10651;SDS011;5374;42.742;23.266;2023-04-24T03:15:43;15.77;;;10.97;;
10651;SDS011;5374;42.742;23.266;2023-04-24T03:18:32;13.77;;;10.00;;
10651;SDS011;5374;42.742;23.266;2023-04-24T03:21:20;13.97;;;10.37;;
10651;SDS011;5374;42.742;23.266;2023-04-24T03:24:09;13.67;;;11.10;;
10651;SDS011;5374;42.742;23.266;2023-04-24T03:26:56;15.13;;;10.33;;
10651;SDS011;5374;42.742;23.266;2023-04-24T03:29:43;12.70;;;10.50;;
10651;SDS011;5374;42.742;23.266;2023-04-24T03:32:30;13.67;;;9.50;;
10651;SDS011;5374;42.742;23.266;2023-04-24T03:35:17;13.83;;;9.87;;
10651;SDS011;5374;42.742;23.266;2023-04-24T03:38:06;14.83;;;9.97;;
10651;SDS011;5374;42.742;23.266;2023-04-24T03:40:53;12.90;;;9.70;;
10651;SDS011;5374;42.742;23.266;2023-04-24T03:43:40;12.07;;;10.03;;
10651;SDS011;5374;42.742;23.266;2023-04-24T03:46:28;11.93;;;9.30;;
10651;SDS011;5374;42.742;23.266;2023-04-24T03:49:15;12.23;;;9.07;;
10651;SDS011;5374;42.742;23.266;2023-04-24T03:52:03;12.30;;;10.17;;
10651;SDS011;5374;42.742;23.266;2023-04-24T03:54:51;20.93;;;10.93;;
10651;SDS011;5374;42.742;23.266;2023-04-24T03:57:39;20.27;;;10.80;;
10651;SDS011;5374;42.742;23.266;2023-04-24T04:00:27;18.97;;;10.43;;
10651;SDS011;5374;42.742;23.266;2023-04-24T04:03:14;17.93;;;10.27;;
10651;SDS011;5374;42.742;23.266;2023-04-24T04:06:01;15.90;;;10.23;;
10651;SDS011;5374;42.742;23.266;2023-04-24T04:08:48;19.40;;;10.10;;
10651;SDS011;5374;42.742;23.266;2023-04-24T04:11:37;12.47;;;10.50;;
10651;SDS011;5374;42.742;23.266;2023-04-24T04:14:24;13.27;;;10.07;;
10651;SDS011;5374;42.742;23.266;2023-04-24T04:17:11;17.73;;;10.27;;
10651;SDS011;5374;42.742;23.266;2023-04-24T04:19:58;17.73;;;9.87;;
10651;SDS011;5374;42.742;23.266;2023-04-24T04:22:45;20.00;;;10.40;;
10651;SDS011;5374;42.742;23.266;2023-04-24T04:25:32;15.27;;;9.40;;
10651;SDS011;5374;42.742;23.266;2023-04-24T04:28:21;17.83;;;9.60;;
10651;SDS011;5374;42.742;23.266;2023-04-24T04:31:10;14.17;;;9.37;;
10651;SDS011;5374;42.742;23.266;2023-04-24T04:33:57;19.00;;;9.40;;
10651;SDS011;5374;42.742;23.266;2023-04-24T04:36:44;23.20;;;10.37;;
10651;SDS011;5374;42.742;23.266;2023-04-24T04:39:31;21.80;;;9.80;;
10651;SDS011;5374;42.742;23.266;2023-04-24T04:42:18;14.43;;;9.43;;
10651;SDS011;5374;42.742;23.266;2023-04-24T04:45:07;17.63;;;9.27;;
10651;SDS011;5374;42.742;23.266;2023-04-24T04:47:56;13.87;;;9.43;;
10651;SDS011;5374;42.742;23.266;2023-04-24T04:50:46;15.77;;;9.83;;
10651;SDS011;5374;42.742;23.266;2023-04-24T04:53:33;20.83;;;9.63;;
10651;SDS011;5374;42.742;23.266;2023-04-24T04:56:20;20.83;;;11.57;;
10651;SDS011;5374;42.742;23.266;2023-04-24T04:59:07;20.47;;;9.90;;
10651;SDS011;5374;42.742;23.266;2023-04-24T05:01:56;24.40;;;10.53;;
10651;SDS011;5374;42.742;23.266;2023-04-24T05:04:43;19.57;;;9.70;;
10651;SDS011;5374;42.742;23.266;2023-04-24T05:07:30;19.60;;;9.13;;
10651;SDS011;5374;42.742;23.266;2023-04-24T05:10:17;13.57;;;9.10;;
10651;SDS011;5374;42.742;23.266;2023-04-24T05:13:04;11.57;;;8.30;;
10651;SDS011;5374;42.742;23.266;2023-04-24T05:15:51;15.70;;;9.80;;
10651;SDS011;5374;42.742;23.266;2023-04-24T05:18:40;14.60;;;8.37;;
10651;SDS011;5374;42.742;23.266;2023-04-24T05:21:27;15.83;;;8.43;;
10651;SDS011;5374;42.742;23.266;2023-04-24T05:24:14;11.90;;;8.57;;
10651;SDS011;5374;42.742;23.266;2023-04-24T05:27:01;12.97;;;8.47;;
10651;SDS011;5374;42.742;23.266;2023-04-24T05:29:49;18.03;;;9.07;;
10651;SDS011;5374;42.742;23.266;2023-04-24T05:32:37;21.03;;;8.70;;
10651;SDS011;5374;42.742;23.266;2023-04-24T05:35:25;16.37;;;8.57;;
10651;SDS011;5374;42.742;23.266;2023-04-24T05:38:14;15.57;;;8.67;;
10651;SDS011;5374;42.742;23.266;2023-04-24T05:41:05;22.20;;;8.63;;
10651;SDS011;5374;42.742;23.266;2023-04-24T05:43:52;24.30;;;8.53;;
10651;SDS011;5374;42.742;23.266;2023-04-24T05:46:39;14.63;;;8.73;;
10651;SDS011;5374;42.742;23.266;2023-04-24T05:49:26;19.37;;;8.73;;
10651;SDS011;5374;42.742;23.266;2023-04-24T05:52:15;18.33;;;8.47;;
10651;SDS011;5374;42.742;23.266;2023-04-24T05:55:02;18.80;;;8.90;;
10651;SDS011;5374;42.742;23.266;2023-04-24T05:57:49;22.30;;;9.10;;
10651;SDS011;5374;42.742;23.266;2023-04-24T06:00:36;18.77;;;7.87;;
10651;SDS011;5374;42.742;23.266;2023-04-24T06:03:25;26.77;;;7.57;;
10651;SDS011;5374;42.742;23.266;2023-04-24T06:06:12;9.03;;;6.20;;
10651;SDS011;5374;42.742;23.266;2023-04-24T06:09:02;12.47;;;5.57;;
10651;SDS011;5374;42.742;23.266;2023-04-24T06:11:50;10.93;;;6.13;;
10651;SDS011;5374;42.742;23.266;2023-04-24T06:14:38;10.47;;;6.30;;
10651;SDS011;5374;42.742;23.266;2023-04-24T06:17:25;11.40;;;5.77;;
10651;SDS011;5374;42.742;23.266;2023-04-24T06:20:12;8.30;;;5.80;;
10651;SDS011;5374;42.742;23.266;2023-04-24T06:22:59;16.83;;;5.70;;
10651;SDS011;5374;42.742;23.266;2023-04-24T06:25:48;12.73;;;5.93;;
10651;SDS011;5374;42.742;23.266;2023-04-24T06:28:35;8.67;;;5.57;;
10651;SDS011;5374;42.742;23.266;2023-04-24T06:31:22;8.70;;;5.70;;
10651;SDS011;5374;42.742;23.266;2023-04-24T06:34:09;6.40;;;5.13;;
10651;SDS011;5374;42.742;23.266;2023-04-24T06:36:56;10.37;;;5.27;;
10651;SDS011;5374;42.742;23.266;2023-04-24T06:39:44;9.03;;;4.70;;
10651;SDS011;5374;42.742;23.266;2023-04-24T06:42:32;11.63;;;5.40;;
10651;SDS011;5374;42.742;23.266;2023-04-24T06:45:20;16.40;;;5.73;;
10651;SDS011;5374;42.742;23.266;2023-04-24T06:48:07;14.13;;;5.07;;
10651;SDS011;5374;42.742;23.266;2023-04-24T06:51:08;9.07;;;5.30;;
10651;SDS011;5374;42.742;23.266;2023-04-24T06:54:01;9.00;;;5.20;;
10651;SDS011;5374;42.742;23.266;2023-04-24T06:56:48;14.03;;;5.27;;
10651;SDS011;5374;42.742;23.266;2023-04-24T06:59:38;11.67;;;5.47;;
10651;SDS011;5374;42.742;23.266;2023-04-24T07:02:25;11.20;;;5.83;;
10651;SDS011;5374;42.742;23.266;2023-04-24T07:05:12;14.17;;;5.67;;
10651;SDS011;5374;42.742;23.266;2023-04-24T07:08:00;9.20;;;5.80;;
10651;SDS011;5374;42.742;23.266;2023-04-24T07:10:48;12.60;;;5.37;;
10651;SDS011;5374;42.742;23.266;2023-04-24T07:13:36;10.20;;;5.93;;
10651;SDS011;5374;42.742;23.266;2023-04-24T07:16:32;8.73;;;5.83;;
10651;SDS011;5374;42.742;23.266;2023-04-24T07:19:20;8.90;;;6.03;;
10651;SDS011;5374;42.742;23.266;2023-04-24T07:22:07;9.43;;;6.00;;
10651;SDS011;5374;42.742;23.266;2023-04-24T07:24:56;12.70;;;5.97;;
10651;SDS011;5374;42.742;23.266;2023-04-24T07:27:43;8.47;;;6.10;;
10651;SDS011;5374;42.742;23.266;2023-04-24T07:30:31;13.40;;;5.97;;
10651;SDS011;5374;42.742;23.266;2023-04-24T07:33:20;11.10;;;6.23;;
10651;SDS011;5374;42.742;23.266;2023-04-24T07:36:07;8.10;;;5.93;;
10651;SDS011;5374;42.742;23.266;2023-04-24T07:39:00;6.77;;;6.00;;
10651;SDS011;5374;42.742;23.266;2023-04-24T07:41:48;10.50;;;6.00;;
10651;SDS011;5374;42.742;23.266;2023-04-24T07:44:35;8.43;;;6.13;;
10651;SDS011;5374;42.742;23.266;2023-04-24T07:47:22;11.23;;;6.10;;
10651;SDS011;5374;42.742;23.266;2023-04-24T07:50:11;8.90;;;7.20;;
10651;SDS011;5374;42.742;23.266;2023-04-24T07:52:58;13.13;;;6.50;;
10651;SDS011;5374;42.742;23.266;2023-04-24T07:55:46;9.57;;;5.50;;
10651;SDS011;5374;42.742;23.266;2023-04-24T07:58:33;6.07;;;5.47;;
10651;SDS011;5374;42.742;23.266;2023-04-24T08:01:20;8.40;;;6.27;;
10651;SDS011;5374;42.742;23.266;2023-04-24T08:04:07;8.10;;;5.80;;
10651;SDS011;5374;42.742;23.266;2023-04-24T08:06:55;6.27;;;5.47;;
10651;SDS011;5374;42.742;23.266;2023-04-24T08:09:42;8.27;;;5.77;;
10651;SDS011;5374;42.742;23.266;2023-04-24T08:12:30;7.93;;;5.63;;
10651;SDS011;5374;42.742;23.266;2023-04-24T08:15:17;7.90;;;5.20;;
10651;SDS011;5374;42.742;23.266;2023-04-24T08:18:04;6.07;;;5.43;;
10651;SDS011;5374;42.742;23.266;2023-04-24T08:20:52;7.33;;;5.63;;
10651;SDS011;5374;42.742;23.266;2023-04-24T08:23:40;7.90;;;5.50;;
10651;SDS011;5374;42.742;23.266;2023-04-24T08:26:28;8.00;;;5.40;;
10651;SDS011;5374;42.742;23.266;2023-04-24T08:29:15;12.67;;;5.37;;
10651;SDS011;5374;42.742;23.266;2023-04-24T08:32:02;13.93;;;5.63;;
10651;SDS011;5374;42.742;23.266;2023-04-24T08:34:50;9.27;;;5.80;;
10651;SDS011;5374;42.742;23.266;2023-04-24T08:37:38;8.57;;;6.50;;
10651;SDS011;5374;42.742;23.266;2023-04-24T08:40:28;11.57;;;5.40;;
10651;SDS011;5374;42.742;23.266;2023-04-24T08:43:16;7.60;;;5.63;;
10651;SDS011;5374;42.742;23.266;2023-04-24T08:46:04;11.63;;;5.30;;
10651;SDS011;5374;42.742;23.266;2023-04-24T08:48:51;11.37;;;5.57;;
10651;SDS011;5374;42.742;23.266;2023-04-24T08:51:39;7.03;;;5.27;;
10651;SDS011;5374;42.742;23.266;2023-04-24T08:54:26;8.20;;;5.40;;
10651;SDS011;5374;42.742;23.266;2023-04-24T08:57:16;8.00;;;5.70;;
10651;SDS011;5374;42.742;23.266;2023-04-24T09:00:04;6.70;;;5.80;;
10651;SDS011;5374;42.742;23.266;2023-04-24T09:02:55;6.93;;;5.30;;
10651;SDS011;5374;42.742;23.266;2023-04-24T09:05:43;7.20;;;5.53;;
10651;SDS011;5374;42.742;23.266;2023-04-24T09:08:32;8.63;;;6.27;;
10651;SDS011;5374;42.742;23.266;2023-04-24T09:11:20;8.67;;;5.67;;
10651;SDS011;5374;42.742;23.266;2023-04-24T09:14:11;7.10;;;5.83;;
10651;SDS011;5374;42.742;23.266;2023-04-24T09:16:58;9.43;;;5.50;;
10651;SDS011;5374;42.742;23.266;2023-04-24T09:19:45;7.47;;;5.20;;
10651;SDS011;5374;42.742;23.266;2023-04-24T09:22:32;7.47;;;5.73;;
10651;SDS011;5374;42.742;23.266;2023-04-24T09:25:20;6.80;;;5.73;;
10651;SDS011;5374;42.742;23.266;2023-04-24T09:28:07;10.30;;;5.53;;
10651;SDS011;5374;42.742;23.266;2023-04-24T09:31:06;9.97;;;5.63;;
10651;SDS011;5374;42.742;23.266;2023-04-24T09:33:55;9.00;;;5.90;;
10651;SDS011;5374;42.742;23.266;2023-04-24T09:36:45;8.73;;;5.47;;
10651;SDS011;5374;42.742;23.266;2023-04-24T09:39:32;7.77;;;5.43;;
10651;SDS011;5374;42.742;23.266;2023-04-24T09:42:19;5.97;;;5.20;;
10651;SDS011;5374;42.742;23.266;2023-04-24T09:45:09;8.17;;;5.40;;
10651;SDS011;5374;42.742;23.266;2023-04-24T09:47:58;7.13;;;5.90;;
10651;SDS011;5374;42.742;23.266;2023-04-24T09:50:45;7.93;;;5.57;;
10651;SDS011;5374;42.742;23.266;2023-04-24T09:53:33;9.53;;;6.23;;
10651;SDS011;5374;42.742;23.266;2023-04-24T09:56:20;10.23;;;5.60;;
10651;SDS011;5374;42.742;23.266;2023-04-24T09:59:07;10.93;;;6.33;;
10651;SDS011;5374;42.742;23.266;2023-04-24T10:01:54;8.30;;;6.23;;
10651;SDS011;5374;42.742;23.266;2023-04-24T10:04:53;15.77;;;5.70;;
10651;SDS011;5374;42.742;23.266;2023-04-24T10:07:43;13.13;;;6.13;;
10651;SDS011;5374;42.742;23.266;2023-04-24T10:10:31;11.77;;;5.33;;
10651;SDS011;5374;42.742;23.266;2023-04-24T10:13:23;9.97;;;6.00;;
10651;SDS011;5374;42.742;23.266;2023-04-24T10:16:10;14.63;;;6.03;;
10651;SDS011;5374;42.742;23.266;2023-04-24T10:18:58;9.03;;;5.43;;
10651;SDS011;5374;42.742;23.266;2023-04-24T10:21:47;7.30;;;5.37;;
10651;SDS011;5374;42.742;23.266;2023-04-24T10:24:40;24.63;;;6.23;;
10651;SDS011;5374;42.742;23.266;2023-04-24T11:33:26;4.97;;;3.63;;
10651;SDS011;5374;42.742;23.266;2023-04-24T11:36:13;8.37;;;6.00;;
10651;SDS011;5374;42.742;23.266;2023-04-24T11:39:00;6.10;;;4.63;;
10651;SDS011;5374;42.742;23.266;2023-04-24T11:41:48;5.23;;;4.37;;
10651;SDS011;5374;42.742;23.266;2023-04-24T11:44:36;7.50;;;3.70;;
10651;SDS011;5374;42.742;23.266;2023-04-24T11:47:27;4.00;;;3.60;;
10651;SDS011;5374;42.742;23.266;2023-04-24T11:50:17;4.83;;;3.50;;
10651;SDS011;5374;42.742;23.266;2023-04-24T11:53:05;5.47;;;4.30;;
10651;SDS011;5374;42.742;23.266;2023-04-24T11:55:52;4.43;;;4.03;;
10651;SDS011;5374;42.742;23.266;2023-04-24T11:58:39;5.63;;;4.33;;
10651;SDS011;5374;42.742;23.266;2023-04-24T12:01:26;6.27;;;4.40;;
10651;SDS011;5374;42.742;23.266;2023-04-24T12:04:15;6.67;;;4.23;;
10651;SDS011;5374;42.742;23.266;2023-04-24T12:07:05;4.67;;;4.00;;
10651;SDS011;5374;42.742;23.266;2023-04-24T12:09:57;4.97;;;4.30;;
10651;SDS011;5374;42.742;23.266;2023-04-24T12:12:45;5.30;;;4.80;;
10651;SDS011;5374;42.742;23.266;2023-04-24T12:15:32;4.40;;;4.00;;
10651;SDS011;5374;42.742;23.266;2023-04-24T12:18:21;8.87;;;4.60;;
10651;SDS011;5374;42.742;23.266;2023-04-24T12:21:16;11.23;;;4.83;;
10651;SDS011;5374;42.742;23.266;2023-04-24T12:24:08;9.17;;;5.47;;
10651;SDS011;5374;42.742;23.266;2023-04-24T12:26:55;5.67;;;4.10;;
10651;SDS011;5374;42.742;23.266;2023-04-24T12:29:51;9.90;;;4.50;;
10651;SDS011;5374;42.742;23.266;2023-04-24T12:32:49;8.00;;;4.23;;
10651;SDS011;5374;42.742;23.266;2023-04-24T12:35:37;9.73;;;5.20;;
10651;SDS011;5374;42.742;23.266;2023-04-24T12:38:28;5.73;;;4.27;;
10651;SDS011;5374;42.742;23.266;2023-04-24T12:41:17;9.50;;;4.63;;
10651;SDS011;5374;42.742;23.266;2023-04-24T12:44:09;9.27;;;4.87;;
10651;SDS011;5374;42.742;23.266;2023-04-24T12:46:57;12.80;;;5.57;;
10651;SDS011;5374;42.742;23.266;2023-04-24T12:49:44;14.50;;;4.93;;
10651;SDS011;5374;42.742;23.266;2023-04-24T12:52:31;10.57;;;6.40;;
10651;SDS011;5374;42.742;23.266;2023-04-24T12:55:19;10.77;;;6.23;;
10651;SDS011;5374;42.742;23.266;2023-04-24T12:58:07;12.67;;;5.40;;
10651;SDS011;5374;42.742;23.266;2023-04-24T13:00:54;7.87;;;4.63;;
10651;SDS011;5374;42.742;23.266;2023-04-24T13:03:41;5.23;;;4.20;;
10651;SDS011;5374;42.742;23.266;2023-04-24T13:06:29;7.70;;;4.00;;
10651;SDS011;5374;42.742;23.266;2023-04-24T13:09:16;11.10;;;4.87;;
10651;SDS011;5374;42.742;23.266;2023-04-24T13:12:04;10.03;;;4.37;;
10651;SDS011;5374;42.742;23.266;2023-04-24T13:14:53;9.17;;;4.67;;
10651;SDS011;5374;42.742;23.266;2023-04-24T13:17:41;13.13;;;4.00;;
10651;SDS011;5374;42.742;23.266;2023-04-24T13:20:28;13.57;;;4.37;;
10651;SDS011;5374;42.742;23.266;2023-04-24T13:23:15;9.17;;;4.13;;
10651;SDS011;5374;42.742;23.266;2023-04-24T13:26:02;6.60;;;3.93;;
10651;SDS011;5374;42.742;23.266;2023-04-24T13:28:50;4.23;;;3.50;;
10651;SDS011;5374;42.742;23.266;2023-04-24T13:31:39;7.73;;;3.60;;
10651;SDS011;5374;42.742;23.266;2023-04-24T13:34:26;7.50;;;3.97;;
10651;SDS011;5374;42.742;23.266;2023-04-24T13:37:14;9.07;;;3.20;;
10651;SDS011;5374;42.742;23.266;2023-04-24T13:40:01;5.30;;;4.00;;
10651;SDS011;5374;42.742;23.266;2023-04-24T13:42:51;7.40;;;3.90;;
10651;SDS011;5374;42.742;23.266;2023-04-24T13:45:38;6.43;;;4.53;;
10651;SDS011;5374;42.742;23.266;2023-04-24T13:48:27;5.87;;;3.93;;
10651;SDS011;5374;42.742;23.266;2023-04-24T13:51:14;26.30;;;16.60;;
10651;SDS011;5374;42.742;23.266;2023-04-24T13:54:01;15.37;;;10.20;;
10651;SDS011;5374;42.742;23.266;2023-04-24T13:56:48;8.10;;;6.23;;
10651;SDS011;5374;42.742;23.266;2023-04-24T13:59:35;9.87;;;4.37;;
10651;SDS011;5374;42.742;23.266;2023-04-24T14:02:22;6.17;;;4.83;;
10651;SDS011;5374;42.742;23.266;2023-04-24T14:05:12;6.50;;;4.20;;
10651;SDS011;5374;42.742;23.266;2023-04-24T14:07:59;4.30;;;3.60;;
10651;SDS011;5374;42.742;23.266;2023-04-24T14:10:46;4.27;;;3.80;;
10651;SDS011;5374;42.742;23.266;2023-04-24T14:13:34;4.30;;;3.70;;
10651;SDS011;5374;42.742;23.266;2023-04-24T14:16:22;6.57;;;3.97;;
10651;SDS011;5374;42.742;23.266;2023-04-24T14:19:09;4.33;;;3.73;;
10651;SDS011;5374;42.742;23.266;2023-04-24T14:21:58;7.90;;;4.07;;
10651;SDS011;5374;42.742;23.266;2023-04-24T14:24:46;7.27;;;3.70;;
10651;SDS011;5374;42.742;23.266;2023-04-24T14:27:33;4.80;;;3.97;;
10651;SDS011;5374;42.742;23.266;2023-04-24T14:30:21;5.13;;;3.20;;
10651;SDS011;5374;42.742;23.266;2023-04-24T14:33:08;9.00;;;3.60;;
10651;SDS011;5374;42.742;23.266;2023-04-24T14:35:55;5.10;;;3.83;;
10651;SDS011;5374;42.742;23.266;2023-04-24T14:38:44;5.63;;;3.80;;
10651;SDS011;5374;42.742;23.266;2023-04-24T14:41:31;6.63;;;3.90;;
10651;SDS011;5374;42.742;23.266;2023-04-24T14:44:20;7.90;;;4.23;;
10651;SDS011;5374;42.742;23.266;2023-04-24T14:47:08;4.43;;;3.83;;
10651;SDS011;5374;42.742;23.266;2023-04-24T14:49:55;4.67;;;3.57;;
10651;SDS011;5374;42.742;23.266;2023-04-24T14:52:42;6.13;;;3.90;;
10651;SDS011;5374;42.742;23.266;2023-04-24T14:55:30;5.63;;;4.07;;
10651;SDS011;5374;42.742;23.266;2023-04-24T14:58:19;9.97;;;5.60;;
10651;SDS011;5374;42.742;23.266;2023-04-24T15:01:10;5.67;;;3.90;;
10651;SDS011;5374;42.742;23.266;2023-04-24T15:03:57;6.60;;;4.20;;
10651;SDS011;5374;42.742;23.266;2023-04-24T15:06:44;11.77;;;4.07;;
10651;SDS011;5374;42.742;23.266;2023-04-24T15:09:32;4.37;;;3.93;;
10651;SDS011;5374;42.742;23.266;2023-04-24T15:12:21;7.97;;;4.30;;
10651;SDS011;5374;42.742;23.266;2023-04-24T15:15:08;5.43;;;3.77;;
10651;SDS011;5374;42.742;23.266;2023-04-24T15:17:56;11.60;;;3.90;;
10651;SDS011;5374;42.742;23.266;2023-04-24T15:20:43;6.77;;;4.67;;
10651;SDS011;5374;42.742;23.266;2023-04-24T15:23:31;7.40;;;5.50;;
10651;SDS011;5374;42.742;23.266;2023-04-24T15:26:18;12.03;;;6.30;;
10651;SDS011;5374;42.742;23.266;2023-04-24T15:29:07;8.43;;;5.90;;
10651;SDS011;5374;42.742;23.266;2023-04-24T15:31:54;7.00;;;5.70;;
10651;SDS011;5374;42.742;23.266;2023-04-24T15:34:41;7.57;;;5.90;;
10651;SDS011;5374;42.742;23.266;2023-04-24T15:37:28;9.00;;;6.00;;
10651;SDS011;5374;42.742;23.266;2023-04-24T15:40:15;6.17;;;5.57;;
10651;SDS011;5374;42.742;23.266;2023-04-24T15:43:02;9.13;;;5.97;;
10651;SDS011;5374;42.742;23.266;2023-04-24T15:45:51;7.57;;;6.77;;
10651;SDS011;5374;42.742;23.266;2023-04-24T15:48:38;7.87;;;6.40;;
10651;SDS011;5374;42.742;23.266;2023-04-24T15:51:26;8.23;;;6.40;;
10651;SDS011;5374;42.742;23.266;2023-04-24T15:54:13;5.60;;;4.80;;
10651;SDS011;5374;42.742;23.266;2023-04-24T15:57:01;5.03;;;4.53;;
10651;SDS011;5374;42.742;23.266;2023-04-24T15:59:48;6.93;;;6.23;;
10651;SDS011;5374;42.742;23.266;2023-04-24T16:02:37;7.43;;;6.27;;
10651;SDS011;5374;42.742;23.266;2023-04-24T16:05:25;12.10;;;8.00;;
10651;SDS011;5374;42.742;23.266;2023-04-24T16:08:12;15.70;;;8.00;;
10651;SDS011;5374;42.742;23.266;2023-04-24T16:11:00;10.03;;;6.60;;
10651;SDS011;5374;42.742;23.266;2023-04-24T16:13:47;8.87;;;7.80;;
10651;SDS011;5374;42.742;23.266;2023-04-24T16:16:34;11.10;;;8.30;;
10651;SDS011;5374;42.742;23.266;2023-04-24T16:19:23;9.73;;;8.73;;
10651;SDS011;5374;42.742;23.266;2023-04-24T16:22:11;17.93;;;13.33;;
10651;SDS011;5374;42.742;23.266;2023-04-24T16:24:58;18.60;;;16.70;;
10651;SDS011;5374;42.742;23.266;2023-04-24T16:27:46;10.20;;;9.20;;
10651;SDS011;5374;42.742;23.266;2023-04-24T16:30:34;9.33;;;7.10;;
10651;SDS011;5374;42.742;23.266;2023-04-24T16:33:24;14.37;;;11.40;;
10651;SDS011;5374;42.742;23.266;2023-04-24T16:36:13;10.33;;;9.00;;
10651;SDS011;5374;42.742;23.266;2023-04-24T16:39:01;12.47;;;10.53;;
10651;SDS011;5374;42.742;23.266;2023-04-24T16:41:50;10.50;;;9.50;;
10651;SDS011;5374;42.742;23.266;2023-04-24T16:44:38;9.30;;;8.30;;
10651;SDS011;5374;42.742;23.266;2023-04-24T16:47:26;10.93;;;8.70;;
10651;SDS011;5374;42.742;23.266;2023-04-24T16:50:14;13.67;;;10.80;;
10651;SDS011;5374;42.742;23.266;2023-04-24T16:53:03;14.30;;;11.27;;
10651;SDS011;5374;42.742;23.266;2023-04-24T16:55:51;16.33;;;12.07;;
10651;SDS011;5374;42.742;23.266;2023-04-24T16:58:38;13.93;;;10.40;;
10651;SDS011;5374;42.742;23.266;2023-04-24T17:01:26;11.20;;;9.50;;
10651;SDS011;5374;42.742;23.266;2023-04-24T17:04:14;16.80;;;13.70;;
10651;SDS011;5374;42.742;23.266;2023-04-24T17:07:01;12.17;;;9.40;;
10651;SDS011;5374;42.742;23.266;2023-04-24T17:09:51;11.77;;;9.63;;
10651;SDS011;5374;42.742;23.266;2023-04-24T17:12:39;12.73;;;11.47;;
10651;SDS011;5374;42.742;23.266;2023-04-24T17:15:27;14.43;;;12.13;;
10651;SDS011;5374;42.742;23.266;2023-04-24T17:18:14;11.13;;;9.97;;
10651;SDS011;5374;42.742;23.266;2023-04-24T17:21:02;10.60;;;9.50;;
10651;SDS011;5374;42.742;23.266;2023-04-24T17:23:50;9.30;;;8.40;;
10651;SDS011;5374;42.742;23.266;2023-04-24T17:26:39;8.77;;;7.90;;
10651;SDS011;5374;42.742;23.266;2023-04-24T17:29:27;9.47;;;8.47;;
10651;SDS011;5374;42.742;23.266;2023-04-24T17:32:14;8.87;;;8.07;;
10651;SDS011;5374;42.742;23.266;2023-04-24T17:35:02;7.47;;;6.17;;
10651;SDS011;5374;42.742;23.266;2023-04-24T17:37:51;8.47;;;7.60;;
10651;SDS011;5374;42.742;23.266;2023-04-24T17:40:38;8.93;;;8.03;;
10651;SDS011;5374;42.742;23.266;2023-04-24T17:43:28;9.43;;;8.37;;
10651;SDS011;5374;42.742;23.266;2023-04-24T17:46:15;11.80;;;9.73;;